Aviation Digital Data Service (ADDS)

Output produced by METARs form (0703 UTC 28 September 2022)
found at http://www.aviationweather.gov/metar/data/
 
TAPA 280500Z 09007KT 050V130 9999 FEW020 27/22 Q1013 NOSIG
TAPA 280400Z 08008KT 050V120 9999 SCT019 27/23 Q1014 NOSIG
TAF TAPA 280500Z 2806/2906 09011KT 9999 SCT020 
     PROB30 
     TEMPO 2810/2824 SHRA
       
TAF TKPK 272300Z 2800/2824 08012KT 9999 SCT020 
     PROB40 
     TEMPO 2800/2812 SHRA
       
TAF TUPJ 272300Z 2800/2824 10008KT 9999 SCT020